Time;durP1;ratioP1;P1;durP2;ratioP2;P2;SDS_P1;SDS_P2;PMS_P1;PMS_P2;Temp;Humidity;BMP_temperature;BMP_pressure;BME280_temperature;BME280_humidity;BME280_pressure;Samples;Min_cycle;Max_cycle;Signal;HPM_P1;HPM_P2
2021/07/20 00:01:20;;;;;;;21.87;19.97;;;17.30;99.90;;;;;;5026257;28;20727;-91
2021/07/20 00:03:49;;;;;;;22.97;20.57;;;17.30;99.90;;;;;;5020743;28;20656;-91
2021/07/20 00:06:18;;;;;;;21.57;19.73;;;17.20;99.90;;;;;;5016100;28;20686;-91
2021/07/20 00:08:45;;;;;;;21.90;20.13;;;17.20;99.90;;;;;;5015118;28;20750;-91
2021/07/20 00:11:12;;;;;;;22.20;20.20;;;17.20;99.90;;;;;;5013724;28;20723;-91
2021/07/20 00:13:39;;;;;;;22.50;20.60;;;17.20;99.90;;;;;;5013060;28;20681;-91
2021/07/20 00:16:06;;;;;;;22.00;20.03;;;17.20;99.90;;;;;;5010671;28;20666;-91
2021/07/20 00:18:36;;;;;;;22.10;20.00;;;17.10;99.90;;;;;;5014086;28;20666;-91
2021/07/20 00:21:05;;;;;;;21.60;19.60;;;17.10;99.90;;;;;;5014198;28;21023;-91
2021/07/20 00:23:34;;;;;;;21.37;19.50;;;17.00;99.90;;;;;;5015555;28;20644;-92
2021/07/20 00:26:01;;;;;;;21.93;20.07;;;17.00;99.90;;;;;;5016787;28;20641;-91
2021/07/20 00:28:27;;;;;;;24.63;20.43;;;16.90;99.90;;;;;;5011155;28;20669;-93
2021/07/20 00:30:54;;;;;;;20.07;18.17;;;16.90;99.90;;;;;;5016325;28;20630;-91
2021/07/20 00:33:21;;;;;;;21.03;19.03;;;16.80;99.90;;;;;;5016954;28;20662;-92
2021/07/20 00:35:48;;;;;;;20.30;18.53;;;16.80;99.90;;;;;;5016427;28;20632;-92
2021/07/20 00:38:16;;;;;;;22.07;19.80;;;16.80;99.90;;;;;;5017744;28;20746;-92
2021/07/20 00:40:45;;;;;;;21.20;19.00;;;16.80;99.90;;;;;;5008046;28;21113;-92
2021/07/20 00:43:12;;;;;;;20.37;18.70;;;16.80;99.90;;;;;;5016131;28;20993;-92
2021/07/20 00:45:40;;;;;;;21.60;19.17;;;16.80;99.90;;;;;;5012701;28;20633;-90
2021/07/20 00:48:07;;;;;;;20.80;19.00;;;16.60;99.90;;;;;;5016600;28;21055;-93
2021/07/20 00:50:45;;;;;;;21.77;19.80;;;16.60;99.90;;;;;;5010522;28;20633;-92
2021/07/20 00:53:13;;;;;;;19.90;18.10;;;16.50;99.90;;;;;;5010803;28;20758;-91
2021/07/20 00:55:40;;;;;;;21.93;19.90;;;16.40;99.90;;;;;;5009715;28;20631;-91
2021/07/20 00:58:11;;;;;;;20.93;18.93;;;16.40;99.90;;;;;;5011198;28;21706;-90
2021/07/20 01:00:38;;;;;;;20.80;19.00;;;16.40;99.90;;;;;;5013301;28;21177;-92
2021/07/20 01:03:06;;;;;;;19.50;17.70;;;16.30;99.90;;;;;;5013415;28;20730;-91
2021/07/20 01:05:34;;;;;;;19.80;18.10;;;16.30;99.90;;;;;;5010248;28;20689;-91
2021/07/20 01:08:05;;;;;;;21.50;19.60;;;16.30;99.90;;;;;;5012923;28;20653;-91
2021/07/20 01:10:37;;;;;;;19.73;18.00;;;16.20;99.90;;;;;;5014381;28;20611;-91
2021/07/20 01:13:05;;;;;;;21.07;19.07;;;16.20;99.90;;;;;;5011084;28;20677;-91
2021/07/20 01:15:35;;;;;;;21.53;19.43;;;16.10;99.90;;;;;;5012559;28;20674;-90
2021/07/20 01:18:02;;;;;;;19.90;18.10;;;16.00;99.90;;;;;;5016847;28;20655;-91
2021/07/20 01:20:31;;;;;;;21.20;19.37;;;16.00;99.90;;;;;;5017227;28;20639;-90
2021/07/20 01:23:11;;;;;;;19.13;17.33;;;15.90;99.90;;;;;;5034451;28;20651;-91
2021/07/20 01:25:40;;;;;;;19.17;17.50;;;16.00;99.90;;;;;;5039136;28;20614;-91
2021/07/20 01:28:10;;;;;;;20.20;18.20;;;15.90;99.90;;;;;;5027192;28;20768;-91
2021/07/20 01:30:41;;;;;;;20.40;18.50;;;15.90;99.90;;;;;;5013888;28;21101;-91
2021/07/20 01:33:09;;;;;;;19.60;17.60;;;15.90;99.90;;;;;;5012744;28;20671;-91
2021/07/20 01:35:37;;;;;;;19.30;17.40;;;15.90;99.90;;;;;;5011316;28;21153;-92
2021/07/20 01:38:08;;;;;;;19.80;17.83;;;15.90;99.90;;;;;;5012768;28;20683;-91
2021/07/20 01:40:37;;;;;;;19.83;18.13;;;15.90;99.90;;;;;;5014807;28;20769;-91
2021/07/20 01:43:06;;;;;;;19.73;17.90;;;15.80;99.90;;;;;;5010780;28;20666;-92
2021/07/20 01:45:36;;;;;;;21.00;18.97;;;15.80;99.90;;;;;;5017848;28;20615;-91
2021/07/20 01:48:05;;;;;;;20.37;18.53;;;15.80;99.90;;;;;;5023869;28;20624;-91
2021/07/20 01:50:34;;;;;;;21.90;19.67;;;15.70;99.90;;;;;;5010893;28;20633;-90
2021/07/20 01:53:02;;;;;;;22.50;20.50;;;15.80;99.90;;;;;;5005066;28;20766;-92
2021/07/20 01:55:29;;;;;;;22.83;20.60;;;15.80;99.90;;;;;;5011219;28;20639;-92
2021/07/20 01:57:57;;;;;;;22.27;20.27;;;15.80;99.90;;;;;;5010197;28;20686;-91
2021/07/20 02:00:25;;;;;;;23.43;21.33;;;15.80;99.90;;;;;;5006609;28;20977;-92
2021/07/20 02:03:11;;;;;;;21.50;19.50;;;15.70;99.90;;;;;;5011416;28;20737;-92
2021/07/20 02:08:29;;;;;;;21.67;19.80;;;15.60;99.90;;;;;;5006637;28;20570;-92
2021/07/20 02:11:00;;;;;;;21.80;20.00;;;15.60;99.90;;;;;;5016597;28;20636;-92
2021/07/20 02:13:30;;;;;;;20.10;18.50;;;15.60;99.90;;;;;;5021200;28;20742;-90
2021/07/20 02:15:59;;;;;;;22.30;20.30;;;15.50;99.90;;;;;;5012162;28;20622;-90
2021/07/20 02:18:29;;;;;;;21.63;19.67;;;15.50;99.90;;;;;;5005681;28;20628;-92
2021/07/20 02:21:01;;;;;;;22.43;20.30;;;15.40;99.90;;;;;;5009361;28;21053;-91
2021/07/20 02:23:32;;;;;;;23.67;20.00;;;15.40;99.90;;;;;;5014301;28;20786;-92
2021/07/20 02:26:00;;;;;;;21.17;19.37;;;15.40;99.90;;;;;;5021061;28;20616;-91
2021/07/20 02:28:28;;;;;;;21.07;19.07;;;15.30;99.90;;;;;;5025196;28;20650;-91
2021/07/20 02:30:57;;;;;;;21.70;19.67;;;15.30;99.90;;;;;;5031635;28;20616;-91
2021/07/20 02:33:25;;;;;;;22.60;20.50;;;15.20;99.90;;;;;;5027661;28;20660;-91
2021/07/20 02:35:53;;;;;;;21.23;19.43;;;15.10;99.90;;;;;;5019700;28;20651;-92
2021/07/20 02:38:20;;;;;;;21.03;19.23;;;15.10;99.90;;;;;;5017373;28;20658;-92
2021/07/20 02:40:50;;;;;;;22.47;20.60;;;15.00;99.90;;;;;;5010323;28;20720;-92
2021/07/20 02:43:19;;;;;;;21.60;19.30;;;14.90;99.90;;;;;;5008031;28;20690;-92
2021/07/20 02:45:47;;;;;;;21.77;19.60;;;14.80;99.90;;;;;;5007051;28;21246;-92
2021/07/20 02:48:15;;;;;;;20.60;18.73;;;14.90;99.90;;;;;;5011697;28;20649;-91
2021/07/20 02:50:44;;;;;;;19.63;17.93;;;14.90;99.90;;;;;;5012631;28;20627;-92
2021/07/20 02:53:13;;;;;;;20.93;19.03;;;14.90;99.90;;;;;;5007928;28;20660;-92
2021/07/20 02:55:41;;;;;;;22.33;20.20;;;14.90;99.90;;;;;;5011883;28;20654;-91
2021/07/20 02:58:10;;;;;;;20.20;18.30;;;14.90;99.90;;;;;;5015773;28;20659;-91
2021/07/20 03:00:39;;;;;;;22.90;20.73;;;14.90;99.90;;;;;;5029810;28;20682;-92
2021/07/20 03:03:09;;;;;;;21.13;19.23;;;14.90;99.90;;;;;;5023286;28;21140;-90
2021/07/20 03:05:36;;;;;;;22.33;20.23;;;14.90;99.90;;;;;;5017585;28;20733;-91
2021/07/20 03:08:08;;;;;;;20.73;18.93;;;14.80;99.90;;;;;;5013442;28;20626;-91
2021/07/20 03:10:37;;;;;;;20.17;18.57;;;14.80;99.90;;;;;;5017018;28;20663;-91
2021/07/20 03:13:09;;;;;;;19.67;17.77;;;14.80;99.90;;;;;;5014271;28;20671;-91
2021/07/20 03:15:38;;;;;;;21.23;19.27;;;14.80;99.90;;;;;;5015562;28;20991;-91
2021/07/20 03:18:08;;;;;;;20.43;18.77;;;14.80;99.90;;;;;;5008972;28;20664;-91
2021/07/20 03:20:37;;;;;;;23.10;20.90;;;14.80;99.90;;;;;;5008454;28;20690;-92
2021/07/20 03:23:07;;;;;;;21.63;19.53;;;14.70;99.90;;;;;;5018363;28;20790;-91
2021/07/20 03:25:35;;;;;;;20.90;19.00;;;14.80;99.90;;;;;;5016632;28;20674;-91
2021/07/20 03:28:04;;;;;;;20.90;18.87;;;14.70;99.90;;;;;;5017079;28;20665;-92
2021/07/20 03:30:34;;;;;;;21.93;19.80;;;14.60;99.90;;;;;;5015360;28;20697;-91
2021/07/20 03:33:02;;;;;;;22.03;20.00;;;14.60;99.90;;;;;;5018216;28;21196;-92
2021/07/20 03:35:30;;;;;;;20.90;18.97;;;14.60;99.90;;;;;;5011978;28;21293;-91
2021/07/20 03:37:58;;;;;;;20.47;18.80;;;14.60;99.90;;;;;;5018052;28;20637;-91
2021/07/20 03:40:27;;;;;;;20.10;18.30;;;14.60;99.90;;;;;;5012955;28;20669;-93
2021/07/20 03:42:55;;;;;;;22.20;20.30;;;14.50;99.90;;;;;;5014536;28;21240;-91
2021/07/20 03:45:22;;;;;;;21.20;19.27;;;14.50;99.90;;;;;;5014638;28;21185;-91
2021/07/20 03:47:50;;;;;;;20.80;18.70;;;14.40;99.90;;;;;;5014926;28;21225;-91
2021/07/20 03:50:18;;;;;;;25.30;19.80;;;14.50;99.90;;;;;;5007775;28;21249;-91
2021/07/20 03:52:46;;;;;;;21.27;19.47;;;14.50;99.90;;;;;;5012502;28;20635;-91
2021/07/20 03:55:13;;;;;;;20.87;19.07;;;14.50;99.90;;;;;;5009184;28;20667;-90
2021/07/20 03:57:42;;;;;;;21.73;19.83;;;14.60;99.90;;;;;;5010431;28;20642;-91
2021/07/20 04:00:10;;;;;;;20.37;18.57;;;14.60;99.90;;;;;;5012844;28;20652;-91
2021/07/20 04:02:47;;;;;;;20.37;18.67;;;14.70;99.90;;;;;;5034542;28;20655;-90
2021/07/20 04:05:15;;;;;;;20.33;18.20;;;14.60;99.90;;;;;;5038033;28;20635;-93
2021/07/20 04:07:43;;;;;;;19.50;17.70;;;14.60;99.90;;;;;;5031139;28;20600;-92
2021/07/20 04:10:13;;;;;;;21.87;19.67;;;14.70;99.90;;;;;;5014832;28;20635;-91
2021/07/20 04:12:42;;;;;;;20.93;18.93;;;14.70;99.90;;;;;;5015188;28;20663;-91
2021/07/20 04:15:13;;;;;;;20.00;18.07;;;14.70;99.90;;;;;;5008317;28;20987;-91
2021/07/20 04:17:40;;;;;;;20.03;18.27;;;14.70;99.90;;;;;;5016148;28;20660;-91
2021/07/20 04:20:08;;;;;;;20.10;18.30;;;14.80;99.90;;;;;;5012401;28;20674;-91
2021/07/20 04:22:37;;;;;;;19.57;17.80;;;14.80;99.90;;;;;;5014380;28;21012;-91
2021/07/20 04:25:07;;;;;;;19.93;18.13;;;14.80;99.90;;;;;;5010518;28;20659;-91
2021/07/20 04:27:37;;;;;;;19.67;18.00;;;14.90;99.90;;;;;;5010253;28;20642;-91
2021/07/20 04:30:08;;;;;;;19.30;17.80;;;14.80;99.90;;;;;;5011366;28;20972;-91
2021/07/20 04:32:40;;;;;;;20.30;18.37;;;14.80;99.90;;;;;;5009582;28;20636;-90
2021/07/20 04:35:11;;;;;;;20.50;18.80;;;14.70;99.90;;;;;;5012718;28;20664;-90
2021/07/20 04:37:40;;;;;;;20.30;18.30;;;14.70;99.90;;;;;;5010936;28;21186;-91
2021/07/20 04:40:09;;;;;;;20.50;18.33;;;14.80;99.90;;;;;;5014866;28;20678;-92
2021/07/20 04:42:37;;;;;;;18.47;16.77;;;14.80;99.90;;;;;;5019804;28;20741;-92
2021/07/20 04:45:06;;;;;;;19.70;17.30;;;14.70;99.90;;;;;;5009155;28;20711;-92
2021/07/20 04:47:33;;;;;;;20.43;18.47;;;14.70;99.90;;;;;;5014279;28;21026;-91
2021/07/20 04:50:02;;;;;;;20.27;18.27;;;14.70;99.90;;;;;;5010774;28;20731;-91
2021/07/20 04:52:29;;;;;;;20.03;18.30;;;14.90;99.90;;;;;;5010710;28;20731;-91
2021/07/20 04:54:58;;;;;;;20.50;18.47;;;15.00;99.90;;;;;;5003166;28;20644;-91
2021/07/20 04:57:25;;;;;;;20.37;18.43;;;15.10;99.90;;;;;;5003806;28;20739;-92
2021/07/20 04:59:52;;;;;;;20.13;18.30;;;15.10;99.90;;;;;;5016220;28;20645;-91
2021/07/20 05:02:21;;;;;;;23.97;18.50;;;15.10;99.90;;;;;;5018380;28;20724;-91
2021/07/20 05:04:49;;;;;;;19.70;17.50;;;15.30;99.90;;;;;;5017333;28;20749;-90
2021/07/20 05:07:19;;;;;;;18.37;16.77;;;15.30;99.90;;;;;;5016002;28;20611;-92
2021/07/20 05:09:48;;;;;;;18.67;16.97;;;15.40;99.90;;;;;;5015634;28;20646;-93
2021/07/20 05:12:16;;;;;;;21.03;18.37;;;15.40;99.90;;;;;;5015945;28;20631;-92
2021/07/20 05:14:43;;;;;;;19.17;17.27;;;15.40;99.90;;;;;;5010195;28;20663;-91
2021/07/20 05:17:11;;;;;;;19.43;17.60;;;15.50;99.90;;;;;;5017337;28;20702;-91
2021/07/20 05:19:41;;;;;;;19.83;17.97;;;15.50;99.90;;;;;;5021870;28;20622;-91
2021/07/20 05:22:09;;;;;;;20.40;18.30;;;15.60;99.90;;;;;;5014861;28;20730;-91
2021/07/20 05:24:36;;;;;;;20.30;18.10;;;15.70;99.90;;;;;;5010209;28;20680;-91
2021/07/20 05:27:03;;;;;;;21.10;19.10;;;15.70;99.90;;;;;;5012332;28;20632;-92
2021/07/20 05:29:31;;;;;;;20.03;18.27;;;15.80;99.90;;;;;;5012765;28;20623;-91
2021/07/20 05:32:00;;;;;;;18.60;16.90;;;15.90;99.90;;;;;;5011673;28;21162;-91
2021/07/20 05:34:27;;;;;;;19.93;18.23;;;16.00;99.90;;;;;;5008333;28;20661;-91
2021/07/20 05:36:56;;;;;;;19.93;17.90;;;16.00;99.90;;;;;;5016452;28;20627;-92
2021/07/20 05:39:24;;;;;;;19.93;17.43;;;16.10;99.90;;;;;;5009815;28;20662;-93
2021/07/20 05:41:52;;;;;;;19.57;17.90;;;16.10;99.90;;;;;;5013900;28;20627;-93
2021/07/20 05:44:22;;;;;;;17.57;15.83;;;16.10;99.90;;;;;;5017345;28;20757;-92
2021/07/20 05:46:49;;;;;;;19.13;17.17;;;16.30;99.90;;;;;;5012754;28;20612;-92
2021/07/20 05:49:17;;;;;;;20.93;18.77;;;16.20;99.90;;;;;;5020622;28;20620;-91
2021/07/20 05:51:44;;;;;;;21.43;17.50;;;16.40;99.90;;;;;;5010589;28;20634;-93
2021/07/20 05:54:15;;;;;;;18.47;16.87;;;16.40;99.90;;;;;;5012495;28;20631;-92
2021/07/20 05:56:44;;;;;;;17.00;15.13;;;16.50;99.90;;;;;;5027861;28;20619;-92
2021/07/20 05:59:11;;;;;;;17.70;16.10;;;16.60;99.90;;;;;;5015146;28;20717;-92
2021/07/20 06:01:40;;;;;;;18.43;16.43;;;16.70;99.90;;;;;;5017143;28;20631;-93
2021/07/20 06:04:08;;;;;;;16.97;15.40;;;16.90;99.90;;;;;;5015936;28;20663;-92
2021/07/20 06:06:35;;;;;;;18.53;16.60;;;16.90;99.90;;;;;;5018476;28;20623;-92
2021/07/20 06:09:07;;;;;;;17.23;15.63;;;17.10;99.90;;;;;;5027657;28;20640;-92
2021/07/20 06:11:41;;;;;;;17.80;15.90;;;17.20;99.90;;;;;;5023001;28;20643;-92
2021/07/20 06:14:09;;;;;;;16.60;14.73;;;17.30;99.90;;;;;;5005994;28;20651;-92
2021/07/20 06:16:37;;;;;;;16.13;14.73;;;17.30;99.90;;;;;;5014707;28;20670;-89
2021/07/20 06:19:04;;;;;;;15.97;14.47;;;17.30;99.90;;;;;;5011169;28;20616;-90
2021/07/20 06:21:38;;;;;;;19.47;15.50;;;17.40;99.90;;;;;;5007462;28;20612;-91
2021/07/20 06:24:08;;;;;;;16.53;14.70;;;17.40;99.90;;;;;;5015267;28;20671;-90
2021/07/20 06:26:41;;;;;;;18.90;15.27;;;17.50;99.90;;;;;;5014329;28;20655;-90
2021/07/20 06:29:09;;;;;;;17.50;14.73;;;17.50;99.90;;;;;;5008841;28;21213;-90
2021/07/20 06:31:40;;;;;;;16.53;14.50;;;17.50;99.90;;;;;;5015282;28;20637;-91
2021/07/20 06:34:08;;;;;;;15.30;13.53;;;17.60;99.90;;;;;;5018018;28;20599;-90
2021/07/20 06:36:36;;;;;;;17.63;15.43;;;17.70;99.90;;;;;;5016237;28;20730;-91
2021/07/20 06:39:04;;;;;;;15.20;13.80;;;17.70;99.90;;;;;;5021421;28;20730;-90
2021/07/20 06:41:36;;;;;;;14.40;12.90;;;17.80;99.90;;;;;;5018309;28;20940;-91
2021/07/20 06:44:04;;;;;;;13.60;12.20;;;17.80;99.90;;;;;;5021160;28;20747;-91
2021/07/20 06:46:32;;;;;;;15.40;13.90;;;17.80;99.90;;;;;;5013753;28;20636;-91
2021/07/20 06:49:00;;;;;;;16.17;14.17;;;17.90;99.90;;;;;;5013591;28;20635;-90
2021/07/20 06:51:30;;;;;;;14.10;12.60;;;18.10;99.90;;;;;;5018372;28;20746;-91
2021/07/20 06:53:58;;;;;;;15.03;13.43;;;18.30;99.90;;;;;;5012543;28;21051;-91
2021/07/20 06:56:29;;;;;;;15.63;13.17;;;18.50;99.90;;;;;;5011403;28;20734;-92
2021/07/20 06:58:59;;;;;;;17.17;15.10;;;18.60;99.90;;;;;;5021126;28;21190;-91
2021/07/20 07:01:31;;;;;;;14.33;13.10;;;18.60;99.90;;;;;;5011927;28;20678;-91
2021/07/20 07:04:03;;;;;;;15.43;13.93;;;18.70;99.90;;;;;;5014713;28;20688;-92
2021/07/20 07:06:34;;;;;;;14.00;11.77;;;18.80;99.90;;;;;;5010763;28;20996;-92
2021/07/20 07:09:01;;;;;;;15.80;13.07;;;19.00;99.90;;;;;;5012362;28;20723;-92
2021/07/20 07:11:30;;;;;;;13.63;11.20;;;18.80;99.90;;;;;;5016898;28;20666;-92
2021/07/20 07:13:59;;;;;;;19.33;12.37;;;18.80;99.90;;;;;;5013811;28;20675;-93
2021/07/20 07:16:27;;;;;;;14.53;12.60;;;19.00;99.90;;;;;;5016039;28;20621;-92
2021/07/20 07:18:55;;;;;;;15.37;12.13;;;19.10;99.90;;;;;;5013660;28;20636;-91
2021/07/20 07:21:22;;;;;;;14.60;13.20;;;19.20;99.90;;;;;;5008068;28;20631;-92
2021/07/20 07:23:51;;;;;;;15.20;13.70;;;19.10;99.90;;;;;;5010729;28;20723;-92
2021/07/20 07:26:19;;;;;;;16.27;12.43;;;19.30;99.90;;;;;;5006757;28;20624;-92
2021/07/20 07:28:48;;;;;;;14.23;12.73;;;19.50;99.90;;;;;;5013552;28;20632;-92
2021/07/20 07:31:16;;;;;;;14.10;12.80;;;19.50;99.90;;;;;;5025109;28;20619;-92
2021/07/20 07:33:44;;;;;;;13.03;11.73;;;19.40;99.90;;;;;;5038000;28;20660;-92
2021/07/20 07:36:12;;;;;;;14.10;11.17;;;19.60;99.90;;;;;;5029278;28;20638;-92
2021/07/20 07:38:44;;;;;;;13.77;12.37;;;19.60;99.90;;;;;;5011255;28;20694;-92
2021/07/20 07:41:11;;;;;;;11.57;10.37;;;19.60;99.90;;;;;;5009663;28;21210;-92
2021/07/20 07:43:40;;;;;;;13.90;12.40;;;19.70;99.90;;;;;;5014362;28;21411;-93
2021/07/20 07:46:09;;;;;;;13.53;12.07;;;19.80;99.90;;;;;;5018222;28;20757;-93
2021/07/20 07:48:39;;;;;;;13.50;12.10;;;19.90;99.90;;;;;;5011568;28;20612;-91
2021/07/20 07:51:08;;;;;;;13.40;12.07;;;20.10;99.90;;;;;;5017363;28;20875;-92
2021/07/20 07:53:36;;;;;;;14.37;12.93;;;20.00;99.90;;;;;;5017398;28;21108;-91
2021/07/20 07:56:03;;;;;;;13.33;11.93;;;20.20;99.90;;;;;;5018502;28;20659;-92
2021/07/20 07:58:31;;;;;;;13.03;11.83;;;20.40;99.90;;;;;;5024331;28;20992;-92
2021/07/20 08:01:02;;;;;;;12.90;10.30;;;20.30;99.90;;;;;;5012114;28;20842;-92
2021/07/20 08:03:31;;;;;;;10.13;8.90;;;20.20;99.90;;;;;;5010900;28;20663;-93
2021/07/20 08:06:04;;;;;;;16.60;10.17;;;20.10;99.90;;;;;;5017786;28;20763;-92
2021/07/20 08:08:34;;;;;;;14.93;9.47;;;20.30;99.90;;;;;;5020573;28;20665;-91
2021/07/20 08:11:02;;;;;;;18.73;11.70;;;20.40;99.90;;;;;;5009380;28;20732;-92
2021/07/20 08:13:30;;;;;;;11.87;10.70;;;20.30;99.90;;;;;;5013783;28;20693;-92
2021/07/20 08:16:00;;;;;;;13.10;11.70;;;20.20;99.90;;;;;;5010616;28;21175;-92
2021/07/20 08:18:30;;;;;;;14.23;9.73;;;20.30;99.90;;;;;;5015132;28;20666;-91
2021/07/20 08:21:06;;;;;;;12.10;10.90;;;20.50;99.90;;;;;;5014590;28;20675;-91
2021/07/20 08:23:35;;;;;;;13.20;11.90;;;20.70;99.90;;;;;;5012737;28;21248;-93
2021/07/20 08:26:06;;;;;;;13.80;9.77;;;20.70;99.90;;;;;;5015835;28;20735;-92
2021/07/20 08:28:39;;;;;;;12.23;10.27;;;20.70;99.90;;;;;;5011479;28;20616;-91
2021/07/20 08:31:09;;;;;;;11.47;9.80;;;20.90;99.90;;;;;;5017487;28;20955;-92
2021/07/20 08:33:38;;;;;;;11.77;10.27;;;21.10;99.90;;;;;;5020216;28;20673;-91
2021/07/20 08:36:10;;;;;;;10.40;8.70;;;21.20;99.90;;;;;;5019196;28;20681;-93
2021/07/20 08:38:37;;;;;;;11.53;10.37;;;21.40;99.90;;;;;;5020399;28;20631;-91
2021/07/20 08:41:25;;;;;;;14.37;10.40;;;21.60;99.90;;;;;;5015266;28;20621;-90
2021/07/20 08:44:13;;;;;;;12.70;10.87;;;21.70;99.90;;;;;;5010944;28;20682;-92
2021/07/20 08:46:54;;;;;;;15.10;11.17;;;21.70;99.90;;;;;;5009822;28;20739;-94
2021/07/20 08:49:35;;;;;;;10.77;9.67;;;21.80;99.90;;;;;;5015577;28;20729;-91
2021/07/20 08:52:08;;;;;;;13.00;10.57;;;22.10;99.90;;;;;;5021078;28;20751;-91
2021/07/20 08:54:41;;;;;;;11.77;10.40;;;21.80;99.90;;;;;;5016614;28;21163;-93
2021/07/20 08:57:14;;;;;;;15.27;10.27;;;21.60;99.90;;;;;;5019181;28;21246;-91
2021/07/20 08:59:48;;;;;;;12.97;10.87;;;22.10;99.90;;;;;;5010344;28;20690;-91
2021/07/20 09:02:33;;;;;;;13.27;11.50;;;22.00;99.90;;;;;;5010211;28;21237;-90
2021/07/20 09:05:08;;;;;;;11.20;10.20;;;22.00;99.90;;;;;;5026276;28;20671;-91
2021/07/20 09:07:42;;;;;;;9.63;8.30;;;22.00;99.90;;;;;;5028215;28;20603;-91
2021/07/20 09:10:13;;;;;;;11.17;9.57;;;22.10;99.90;;;;;;5011711;28;20629;-90
2021/07/20 09:12:45;;;;;;;10.40;8.97;;;22.40;99.90;;;;;;5026895;28;20647;-91
2021/07/20 09:15:16;;;;;;;12.40;10.80;;;22.40;99.90;;;;;;5011098;28;20647;-91
2021/07/20 09:17:48;;;;;;;10.70;9.60;;;22.50;99.90;;;;;;5012548;28;21048;-92
2021/07/20 09:20:20;;;;;;;10.20;9.13;;;22.80;99.90;;;;;;5011096;28;20620;-91
2021/07/20 09:22:53;;;;;;;13.17;10.87;;;22.80;99.90;;;;;;5015076;28;20869;-91
2021/07/20 09:25:29;;;;;;;12.47;10.90;;;22.50;99.90;;;;;;5010962;28;20664;-93
2021/07/20 09:28:03;;;;;;;12.10;10.20;;;22.80;99.90;;;;;;5013581;28;20989;-92
2021/07/20 09:30:36;;;;;;;11.23;10.00;;;23.00;99.90;;;;;;5021157;28;20875;-90
2021/07/20 09:33:15;;;;;;;13.37;12.20;;;23.50;99.90;;;;;;5024766;28;20628;-91
2021/07/20 09:35:50;;;;;;;14.30;12.30;;;23.60;99.90;;;;;;5013504;28;20936;-92
2021/07/20 09:38:36;;;;;;;14.57;12.80;;;23.40;99.90;;;;;;5013688;28;21193;-93
2021/07/20 09:41:16;;;;;;;13.77;11.33;;;23.60;99.90;;;;;;5012124;28;21220;-91
2021/07/20 09:43:53;;;;;;;12.57;11.27;;;23.10;99.90;;;;;;5015276;28;20699;-91
2021/07/20 09:46:34;;;;;;;15.10;12.60;;;23.30;99.90;;;;;;5013669;28;21107;-92
2021/07/20 09:49:06;;;;;;;14.53;12.20;;;23.40;99.90;;;;;;5014269;28;20596;-92
2021/07/20 09:51:50;;;;;;;13.33;11.47;;;23.30;99.90;;;;;;5016691;28;20639;-92
2021/07/20 09:54:37;;;;;;;12.20;10.20;;;23.30;99.90;;;;;;5022428;28;20642;-92
2021/07/20 09:57:26;;;;;;;13.17;11.87;;;23.50;99.90;;;;;;5019358;28;21236;-92
2021/07/20 10:00:05;;;;;;;14.30;12.70;;;23.50;99.90;;;;;;5008950;28;21187;-92
2021/07/20 10:02:40;;;;;;;16.33;14.60;;;23.30;99.90;;;;;;5014307;28;20685;-92
2021/07/20 10:05:13;;;;;;;16.27;13.90;;;23.40;99.90;;;;;;5011596;28;20683;-92
2021/07/20 10:07:43;;;;;;;13.43;12.03;;;23.80;99.90;;;;;;5007893;28;21159;-92
2021/07/20 10:10:16;;;;;;;13.40;12.13;;;24.10;99.90;;;;;;5010598;28;20623;-93
2021/07/20 10:12:53;;;;;;;14.73;11.77;;;24.10;99.90;;;;;;5017530;28;20647;-93
2021/07/20 10:15:30;;;;;;;13.73;12.37;;;24.00;99.90;;;;;;5013909;28;21230;-92
2021/07/20 10:18:03;;;;;;;13.97;12.03;;;24.00;99.90;;;;;;5012411;28;20702;-92
2021/07/20 10:20:36;;;;;;;14.10;12.70;;;24.50;99.90;;;;;;5015882;28;20979;-92
2021/07/20 10:23:06;;;;;;;14.47;12.43;;;24.80;99.90;;;;;;5014169;28;20658;-92
2021/07/20 10:25:43;;;;;;;13.10;11.90;;;24.20;99.90;;;;;;5008818;28;20670;-92
2021/07/20 10:28:15;;;;;;;12.60;11.27;;;23.50;99.90;;;;;;5009789;28;20734;-92
2021/07/20 10:30:51;;;;;;;13.30;12.20;;;23.70;99.90;;;;;;5011750;28;21166;-92
2021/07/20 10:33:24;;;;;;;14.20;11.73;;;24.30;99.90;;;;;;5010630;28;20630;-92
2021/07/20 10:35:56;;;;;;;13.50;12.30;;;24.70;99.90;;;;;;5007759;28;20702;-92
2021/07/20 10:38:27;;;;;;;13.70;12.30;;;25.10;99.90;;;;;;5009858;28;21060;-92
2021/07/20 10:40:58;;;;;;;14.80;13.30;;;25.60;99.90;;;;;;5014099;28;20746;-92
2021/07/20 10:43:31;;;;;;;13.90;12.60;;;25.50;99.30;;;;;;5011288;28;20637;-93
2021/07/20 10:46:00;;;;;;;13.23;12.13;;;25.80;99.40;;;;;;5009840;28;20660;-93
2021/07/20 10:48:32;;;;;;;13.00;11.90;;;25.80;98.60;;;;;;5012449;28;20646;-93
2021/07/20 10:51:06;;;;;;;13.77;12.47;;;26.00;99.80;;;;;;5008641;28;21158;-92
2021/07/20 10:53:42;;;;;;;15.10;13.70;;;25.90;97.10;;;;;;5009138;28;20617;-93
2021/07/20 10:56:19;;;;;;;13.73;12.17;;;25.50;98.20;;;;;;5013705;28;20992;-93
2021/07/20 10:58:59;;;;;;;13.97;12.60;;;25.70;97.50;;;;;;5014818;28;20600;-92
2021/07/20 11:01:35;;;;;;;18.53;12.93;;;25.30;98.50;;;;;;5012996;28;21233;-93
2021/07/20 11:04:14;;;;;;;12.90;11.80;;;25.80;99.10;;;;;;5010503;28;20689;-93
2021/07/20 11:06:44;;;;;;;12.73;11.63;;;26.50;95.30;;;;;;5016466;28;20704;-93
2021/07/20 11:09:16;;;;;;;14.03;12.27;;;26.60;94.30;;;;;;5012273;28;21042;-93
2021/07/20 11:11:49;;;;;;;13.07;11.87;;;26.80;95.80;;;;;;5015063;28;21242;-93
2021/07/20 11:14:18;;;;;;;16.57;13.47;;;27.10;94.30;;;;;;5014601;28;20661;-92
2021/07/20 11:16:46;;;;;;;13.47;12.20;;;26.30;95.50;;;;;;5019444;28;20628;-91
2021/07/20 11:19:16;;;;;;;15.50;13.10;;;26.40;96.30;;;;;;5015001;28;20646;-92
2021/07/20 11:21:49;;;;;;;15.17;13.67;;;25.80;96.00;;;;;;5018890;28;20685;-92
2021/07/20 11:24:20;;;;;;;14.37;13.00;;;25.70;95.90;;;;;;5032331;28;20887;-93
2021/07/20 11:26:49;;;;;;;13.90;12.60;;;26.00;95.80;;;;;;5036662;28;20665;-94
2021/07/20 11:29:17;;;;;;;14.87;13.57;;;26.50;93.80;;;;;;5031909;28;20628;-92
2021/07/20 11:31:48;;;;;;;13.90;12.60;;;26.60;94.20;;;;;;5034845;28;20663;-94
2021/07/20 11:34:20;;;;;;;14.73;13.20;;;26.70;92.90;;;;;;5032565;28;20615;-93
2021/07/20 11:36:48;;;;;;;16.70;15.17;;;27.80;92.00;;;;;;5017617;28;20612;-93
2021/07/20 11:39:20;;;;;;;15.63;14.20;;;27.50;91.00;;;;;;5027480;28;20669;-93
2021/07/20 11:41:59;;;;;;;14.70;13.33;;;27.10;92.50;;;;;;5016177;28;20770;-92
2021/07/20 11:44:39;;;;;;;16.07;14.50;;;27.40;92.40;;;;;;5012840;28;20702;-92
2021/07/20 11:47:09;;;;;;;14.87;13.53;;;27.80;91.10;;;;;;5013861;28;20670;-94
2021/07/20 11:49:44;;;;;;;15.43;14.13;;;28.10;91.60;;;;;;5007055;28;20967;-94
2021/07/20 11:52:16;;;;;;;13.73;12.40;;;27.30;91.80;;;;;;5015321;28;20741;-93
2021/07/20 11:55:03;;;;;;;15.23;13.87;;;27.80;90.30;;;;;;5017881;28;20612;-93
2021/07/20 11:58:07;;;;;;;13.47;12.17;;;28.30;87.50;;;;;;5009290;28;20627;-93
2021/07/20 12:01:10;;;;;;;15.03;13.73;;;28.70;89.40;;;;;;5010653;28;20615;-93
2021/07/20 12:03:52;;;;;;;13.70;12.63;;;28.20;90.90;;;;;;5016807;28;20672;-93
2021/07/20 12:06:37;;;;;;;14.67;13.47;;;28.30;91.40;;;;;;5012893;28;21161;-93
2021/07/20 12:09:16;;;;;;;14.50;13.30;;;28.60;88.90;;;;;;5008782;28;21012;-93
2021/07/20 12:11:48;;;;;;;14.97;13.70;;;28.60;83.00;;;;;;5014394;28;20662;-92
2021/07/20 12:14:16;;;;;;;14.33;13.03;;;29.60;82.00;;;;;;5008629;28;20682;-92
2021/07/20 12:16:46;;;;;;;15.23;13.77;;;28.90;84.70;;;;;;5009990;28;20977;-93
2021/07/20 12:19:15;;;;;;;13.93;12.67;;;29.00;86.10;;;;;;5010098;28;20619;-93
2021/07/20 12:21:49;;;;;;;14.50;13.33;;;29.40;85.10;;;;;;5015242;28;20709;-92
2021/07/20 12:24:17;;;;;;;15.27;14.03;;;29.70;79.70;;;;;;5016613;28;20626;-94
2021/07/20 12:26:45;;;;;;;15.10;13.80;;;28.70;81.20;;;;;;5014548;28;20651;-93
2021/07/20 12:29:13;;;;;;;14.33;13.03;;;29.20;82.40;;;;;;5010655;28;20965;-94
2021/07/20 12:31:41;;;;;;;14.87;13.70;;;29.80;80.50;;;;;;5005321;28;20646;-94
2021/07/20 12:34:09;;;;;;;15.03;13.83;;;30.20;76.90;;;;;;5002960;28;21008;-91
2021/07/20 12:36:42;;;;;;;14.40;13.20;;;30.20;76.90;;;;;;5005897;28;20639;-93
2021/07/20 12:39:10;;;;;;;13.30;12.10;;;30.70;74.70;;;;;;5004408;28;20642;-93
2021/07/20 12:41:42;;;;;;;13.90;12.60;;;31.00;73.40;;;;;;5007836;28;21241;-93
2021/07/20 12:44:13;;;;;;;13.97;12.73;;;31.00;73.30;;;;;;5013576;28;20632;-93
2021/07/20 12:46:40;;;;;;;14.03;12.83;;;31.30;72.40;;;;;;5005136;28;21215;-93
2021/07/20 12:49:17;;;;;;;14.83;13.43;;;31.10;70.80;;;;;;5010244;28;20618;-93